Kezdőlap
METAR-TAF:

METAR-TAF

Repülőterek :

Zaragoza, Spanyolország

földrajzi szélesség: 41-40N, földrajzi hosszúság: 001-01W, magasság: 263 m

Jelenlegi meteorológiai megfigyelések

A jelentés 18 perccel ezelõtt készült, 19:00 UTC
Délnyugati szél 7 kt
Hőmérséklet 10°C
Páratartalom 57%
Légköri nyomás 1028 hPa
Látótávolság 10 km, vagy több
felhőtlen 1500 m magasságban, és nincs gomolyfelhõ

METAR: LEZG 191900Z 23007KT CAVOK 10/02 Q1028

Idő: 20:18 (19:18 UTC)

Előrejelzés

A jelentés 2 órával és 18 perccel ezelõtt készült, 17:00 UTC
Az előrejelzés 19-én 18 óra UTC és 20-én 18 óra UTC között érvényes
Különbözõ irányokból fújó szél 4 kt
Látótávolság 10 km, vagy több
Kevés felhő 5000 lábon

TAF: LEZG 191700Z 1918/2018 VRB04KT 9999 FEW050 TX17/2014Z TN02/2006Z

Meteorológiai megfigyelések és előrejelzések több, mint 4000 repülőtéren (METAR és TAF jelentéseket).

A térképen piros és sárga pontok jelzik az elérhető meteorológiai állomásokat.

Mozgassa az egeret a pont fölött, hogy megjelenjen az állomás neve.

Azután kattintson az időjárási megfigyelések és előrejelzések megtekintéséhez.

A térkép megváltoztatása: kattintson a fekete keresztel jelölt zöld gombra ráközelítéshez, a vonallal jelölt zöld gombra távolításhoz, vagy a zöld nyilakra a szomszédos térképek eléréséhez.


METAR-TAF: